首页
METAR-TAF:

METAR-TAF

机场 :

尼茨维尔, 南卡罗来纳州, 美国

纬度: 34-37-18N, 经度: 079-44-04W, 海拔: 45米

当前天气观测

该预报发布于26分钟前的10:55 UTC
风速13节,风向东北,有时为19节阵风
温度 5°C
湿度 93%
气压 1018 hPa
能見度: 11.3公里
阴天层高于800英尺

METAR: KBBP 151055Z AUTO 04013G19KT 7SM RA OVC008 05/04 A3007 RMK AO2 P0011

时间: 06:21 (11:21 UTC)


TAF: 丢失

超过4000个机场的气象观测和天气预报(METAR&TAF报告)。

可查询的气象台以黄色和红色小点在地图上表示。

将鼠标移到小点上方,可查看气象台名称。

然后点击查看天气观测和预报。

如需切换地图:点击带黑十字的绿色按钮放大地图;点击带横线的绿色按钮缩小地图;或者点击绿色箭头查看邻近地区的地图。


METAR-TAF: